Pouch Cove, Canada
Current Conditions -  °F | °C
As of 8:00 AM on Friday 28 Nov 2014 (Local Time) from CYYT Reporting Station
Overcast Overcast  
Wind Chill: -6°   Ceiling: 1100
Heat Index:   Visibility: 12mi
Dew Point: -1°   Wind: 15mph
Humidity: 93%   Direction: 330°NNW
Pressure: 29.67"   Gusts: 24mph
Location:  47.76°N, 52.76°W
Report Text: CYYT 281100Z 33013G21KT 12SM BKN011 OVC015 00/M01 A2967 RMK SC5SC3 PRESRR SLP053
Loading
Personal Weather Stations






























Interactive Weather Map New forecast layout! Learn more

10-Day Weather Forecast

Advertisements
Track Severe Weather on mobile